Terminal Aerodrome Forecast
Issued by NWS

Home | Current Version | Previous Version | Text Only | Print | Product List | Glossary On
Versions: 1 2 3 4 5 6 7 8 9 10 11 12 13 14 15 16 17 18 19 20 21 22 23 24 25 26 27 28 29
000
FTUS43 KGLD 271121
TAFMCK
TAF
KMCK 271121Z 2712/2812 10005KT P6SM OVC100
     FM271600 14011KT P6SM SCT050 OVC100
     FM272000 16013G20KT P6SM OVC050
     FM280000 16010KT P6SM OVC050
     FM280300 14007KT P6SM SCT015 OVC020=

USA.gov is the U.S. government's official web portal to all federal, state and local government web resources and services.